createdAt,value
2019-04-20T00:02:27.475Z,42.00
2019-04-20T00:05:01.202Z,42.60
2019-04-20T00:07:36.383Z,43.20
2019-04-20T00:10:14.955Z,42.60
2019-04-20T00:12:59.376Z,42.30
2019-04-20T00:15:19.613Z,42.60
2019-04-20T00:17:56.157Z,42.70
2019-04-20T00:20:30.629Z,42.90
2019-04-20T00:23:07.864Z,42.80
2019-04-20T00:26:16.182Z,42.50
2019-04-20T00:28:57.399Z,42.90
2019-04-20T00:31:34.042Z,42.80
2019-04-20T00:34:00.701Z,42.20
2019-04-20T00:36:22.231Z,42.70
2019-04-20T00:38:58.270Z,42.90
2019-04-20T00:41:29.713Z,42.80
2019-04-20T00:44:06.832Z,42.90
2019-04-20T00:46:52.135Z,42.60
2019-04-20T00:49:27.568Z,42.60
2019-04-20T00:52:13.122Z,42.70
2019-04-20T00:54:22.385Z,42.50
2019-04-20T00:57:07.896Z,42.90
2019-04-20T00:59:54.218Z,42.90
2019-04-20T01:02:21.043Z,42.70
2019-04-20T01:04:57.946Z,42.60
2019-04-20T01:07:38.576Z,42.60
2019-04-20T01:10:07.333Z,42.80
2019-04-20T01:12:41.016Z,42.50
2019-04-20T01:15:26.856Z,42.40
2019-04-20T01:17:48.037Z,42.40
2019-04-20T01:20:22.628Z,42.70
2019-04-20T01:23:01.890Z,42.60
2019-04-20T01:25:35.159Z,42.70
2019-04-20T01:28:19.288Z,42.70
2019-04-20T01:30:43.182Z,42.30
2019-04-20T01:33:25.170Z,42.50
2019-04-20T01:35:56.685Z,42.80
2019-04-20T01:38:36.909Z,42.80
2019-04-20T01:40:57.177Z,42.70
2019-04-20T01:43:31.165Z,42.70
2019-04-20T01:46:09.318Z,42.50
2019-04-20T01:48:41.309Z,42.20
2019-04-20T01:51:19.630Z,42.20
2019-04-20T01:54:08.278Z,42.10
2019-04-20T01:56:36.764Z,42.60
2019-04-20T01:59:38.535Z,42.50
2019-04-20T02:02:17.755Z,42.90
2019-04-20T02:05:06.057Z,42.70
2019-04-20T02:07:38.378Z,43.10
2019-04-20T02:10:08.319Z,42.60
2019-04-20T02:12:40.855Z,42.70
2019-04-20T02:15:24.184Z,43.20
2019-04-20T02:18:03.618Z,42.70
2019-04-20T02:20:37.621Z,42.50
2019-04-20T02:23:09.471Z,42.90
2019-04-20T02:25:29.029Z,42.90
2019-04-20T02:28:22.824Z,42.80
2019-04-20T02:31:14.883Z,43.00
2019-04-20T02:33:47.316Z,42.80
2019-04-20T02:39:22.141Z,43.40
2019-04-20T02:41:44.685Z,42.90
2019-04-20T02:46:49.266Z,43.10
2019-04-20T02:49:33.687Z,43.10
2019-04-20T02:51:52.736Z,42.90
2019-04-20T02:54:26.133Z,43.10
2019-04-20T02:57:05.630Z,42.90
2019-04-20T03:02:02.993Z,43.50
2019-04-20T03:04:25.707Z,43.00
2019-04-20T03:07:06.769Z,43.40
2019-04-20T03:09:45.915Z,43.70
2019-04-20T03:12:23.635Z,43.40
2019-04-20T03:14:47.360Z,43.40
2019-04-20T03:17:30.044Z,43.80
2019-04-20T03:19:54.958Z,43.90
2019-04-20T03:23:02.389Z,43.60
2019-04-20T03:25:17.913Z,43.60
2019-04-20T03:28:05.353Z,44.00
2019-04-20T03:31:26.828Z,44.10
2019-04-20T03:33:41.398Z,44.00
2019-04-20T03:36:07.482Z,44.10
2019-04-20T03:38:33.585Z,43.80
2019-04-20T03:40:56.445Z,44.10
2019-04-20T03:43:20.084Z,43.80
2019-04-20T03:45:59.478Z,43.80
2019-04-20T03:48:41.292Z,44.10
2019-04-20T03:51:23.921Z,43.70
2019-04-20T03:54:12.193Z,44.10
2019-04-20T03:57:17.298Z,44.20
2019-04-20T04:00:00.463Z,44.20
2019-04-20T04:03:04.717Z,44.20
2019-04-20T04:05:27.414Z,44.30
2019-04-20T04:07:55.882Z,44.30
2019-04-20T04:10:31.633Z,44.40
2019-04-20T04:13:12.432Z,44.40
2019-04-20T04:15:52.849Z,44.50
2019-04-20T04:18:28.069Z,44.40
2019-04-20T04:21:00.098Z,44.20
2019-04-20T04:23:45.927Z,44.60
2019-04-20T04:26:22.307Z,44.20
2019-04-20T04:28:56.338Z,44.30
2019-04-20T04:31:32.324Z,44.60
2019-04-20T04:34:06.266Z,44.60
2019-04-20T04:36:36.062Z,44.50
2019-04-20T04:39:16.677Z,44.30
2019-04-20T04:41:50.973Z,44.70
2019-04-20T04:44:14.616Z,44.80
2019-04-20T04:46:42.382Z,44.70
2019-04-20T04:49:20.780Z,44.70
2019-04-20T04:51:53.514Z,44.30
2019-04-20T04:54:30.469Z,44.40
2019-04-20T04:56:52.564Z,44.80
2019-04-20T04:59:25.715Z,44.80
2019-04-20T05:01:58.810Z,44.50
2019-04-20T05:05:15.917Z,44.10
2019-04-20T05:07:46.390Z,44.60
2019-04-20T05:10:05.564Z,43.70
2019-04-20T05:12:38.783Z,42.70
2019-04-20T05:15:22.756Z,41.80
2019-04-20T05:18:06.190Z,41.40
2019-04-20T05:20:41.663Z,40.90
2019-04-20T05:23:26.935Z,40.40
2019-04-20T05:26:14.175Z,40.10
2019-04-20T05:28:37.162Z,39.70
2019-04-20T05:35:55.641Z,39.30
2019-04-20T05:38:37.743Z,39.40
2019-04-20T05:41:02.109Z,39.40
2019-04-20T05:43:47.072Z,39.40
2019-04-20T05:46:26.164Z,39.10
2019-04-20T05:48:57.604Z,38.60
2019-04-20T05:51:43.254Z,38.80
2019-04-20T05:54:09.832Z,38.80
2019-04-20T05:56:40.877Z,38.80
2019-04-20T05:59:11.610Z,38.50
2019-04-20T06:01:53.287Z,38.60
2019-04-20T06:04:30.048Z,38.50
2019-04-20T06:06:54.897Z,38.10
2019-04-20T06:09:28.673Z,37.90
2019-04-20T06:12:21.005Z,37.50
2019-04-20T06:14:47.046Z,37.50
2019-04-20T06:17:33.331Z,37.00
2019-04-20T06:20:09.087Z,36.50
2019-04-20T06:22:50.238Z,36.10
2019-04-20T06:25:39.090Z,36.00
2019-04-20T06:28:00.946Z,35.80
2019-04-20T06:30:25.237Z,35.70
2019-04-20T06:39:30.893Z,36.40
2019-04-20T06:42:10.921Z,36.50
2019-04-20T06:44:34.069Z,36.10
2019-04-20T06:49:38.198Z,36.40
2019-04-20T06:55:03.389Z,37.00
2019-04-20T06:57:40.552Z,38.10
2019-04-20T07:00:15.537Z,39.40
2019-04-20T07:03:01.897Z,39.40
2019-04-20T07:05:22.520Z,39.50
2019-04-20T07:08:27.720Z,39.80
2019-04-20T07:10:35.848Z,40.00
2019-04-20T07:12:55.321Z,40.00
2019-04-20T07:15:36.410Z,40.20
2019-04-20T07:18:18.649Z,40.00
2019-04-20T07:21:05.337Z,40.30
2019-04-20T07:23:40.728Z,40.40
2019-04-20T07:26:22.321Z,40.70
2019-04-20T07:28:55.720Z,40.50
2019-04-20T07:31:18.958Z,40.80
2019-04-20T07:33:58.049Z,40.30
2019-04-20T07:36:32.422Z,40.60
2019-04-20T07:39:08.960Z,40.60
2019-04-20T07:41:42.023Z,40.40
2019-04-20T07:44:13.145Z,40.80
2019-04-20T07:46:57.824Z,40.40
2019-04-20T07:49:22.461Z,41.00
2019-04-20T07:51:35.539Z,41.00
2019-04-20T07:54:28.294Z,41.00
2019-04-20T07:56:54.885Z,41.00
2019-04-20T07:59:23.177Z,41.10
2019-04-20T08:02:15.735Z,41.30
2019-04-20T08:04:51.263Z,41.50
2019-04-20T08:07:12.443Z,41.00
2019-04-20T08:09:51.449Z,41.50
2019-04-20T08:12:56.884Z,41.50
2019-04-20T08:15:38.072Z,41.40
2019-04-20T08:18:13.666Z,41.50
2019-04-20T08:20:31.434Z,41.60
2019-04-20T08:23:06.395Z,41.60
2019-04-20T08:25:32.762Z,41.60
2019-04-20T08:28:16.451Z,41.60
2019-04-20T08:31:09.087Z,41.50
2019-04-20T08:34:01.716Z,41.60
2019-04-20T08:36:26.934Z,41.20
2019-04-20T08:39:14.634Z,41.80
2019-04-20T08:41:25.033Z,41.80
2019-04-20T08:44:32.365Z,41.60
2019-04-20T08:46:41.738Z,42.50
2019-04-20T08:49:17.167Z,41.60
2019-04-20T08:51:49.790Z,41.80
2019-04-20T08:54:18.088Z,41.70
2019-04-20T08:56:42.415Z,41.60
2019-04-20T08:59:06.742Z,41.30
2019-04-20T09:01:39.454Z,41.20
2019-04-20T09:04:18.604Z,41.10
2019-04-20T09:07:02.346Z,41.20
2019-04-20T09:09:56.482Z,41.50
2019-04-20T09:12:09.129Z,41.90
2019-04-20T09:14:28.302Z,41.60
2019-04-20T09:17:09.419Z,41.60
2019-04-20T09:19:46.931Z,41.90
2019-04-20T09:22:45.723Z,42.10
2019-04-20T09:25:44.445Z,42.10
2019-04-20T09:27:50.789Z,42.30
2019-04-20T09:30:32.020Z,42.20
2019-04-20T09:33:18.224Z,42.50
2019-04-20T09:35:44.453Z,42.60
2019-04-20T09:38:14.529Z,42.80
2019-04-20T09:40:51.017Z,42.80
2019-04-20T09:43:26.049Z,43.10
2019-04-20T09:46:02.123Z,42.60
2019-04-20T09:48:38.739Z,43.00
2019-04-20T09:51:25.803Z,42.90
2019-04-20T09:53:48.869Z,43.30
2019-04-20T09:56:28.107Z,43.30
2019-04-20T10:17:38.550Z,44.20
2019-04-20T10:20:17.633Z,43.40
2019-04-20T10:22:44.914Z,43.60
2019-04-20T10:25:18.209Z,43.30
2019-04-20T10:27:51.608Z,43.60
2019-04-20T10:30:23.459Z,43.60
2019-04-20T10:32:55.872Z,43.60
2019-04-20T10:35:29.666Z,43.20
2019-04-20T10:38:09.618Z,42.90
2019-04-20T10:40:54.115Z,43.30
2019-04-20T10:43:16.368Z,43.30
2019-04-20T10:45:48.925Z,42.90
2019-04-20T10:48:21.422Z,43.00
2019-04-20T10:50:54.806Z,43.20
2019-04-20T10:53:27.965Z,42.90
2019-04-20T10:56:01.260Z,43.10
2019-04-20T10:58:33.901Z,43.00
2019-04-20T11:01:07.267Z,43.10
2019-04-20T11:03:40.711Z,42.50
2019-04-20T11:06:14.383Z,42.80
2019-04-20T11:08:46.874Z,43.20
2019-04-20T11:11:26.148Z,42.10
2019-04-20T11:13:53.181Z,42.70
2019-04-20T11:16:26.391Z,42.10
2019-04-20T11:21:44.107Z,42.10
2019-04-20T11:24:16.391Z,42.50
2019-04-20T11:26:48.263Z,42.00
2019-04-20T11:29:20.060Z,41.90
2019-04-20T11:31:54.761Z,41.30
2019-04-20T11:34:31.405Z,41.90
2019-04-20T11:36:59.257Z,42.60
2019-04-20T11:39:31.073Z,42.50
2019-04-20T11:42:03.676Z,42.90
2019-04-20T11:44:36.521Z,41.90
2019-04-20T11:47:08.493Z,42.00
2019-04-20T11:49:41.603Z,41.20
2019-04-20T11:52:16.370Z,42.30
2019-04-20T11:54:46.794Z,41.70
2019-04-20T11:57:19.590Z,41.10
2019-04-20T11:59:50.852Z,40.90
2019-04-20T12:02:44.288Z,40.50
2019-04-20T12:05:26.215Z,41.10
2019-04-20T12:08:02.957Z,41.30
2019-04-20T12:10:35.018Z,40.70
2019-04-20T12:13:07.917Z,40.40
2019-04-20T12:15:39.836Z,40.30
2019-04-20T12:18:11.686Z,40.10
2019-04-20T12:20:42.931Z,40.50
2019-04-20T12:23:15.924Z,39.80
2019-04-20T12:25:48.033Z,40.70
2019-04-20T12:28:19.922Z,40.50
2019-04-20T12:30:58.417Z,39.80
2019-04-20T12:33:26.461Z,40.80
2019-04-20T12:36:00.369Z,40.90
2019-04-20T12:38:32.986Z,40.30
2019-04-20T12:41:07.763Z,39.20
2019-04-20T12:43:39.334Z,39.60
2019-04-20T12:46:14.922Z,39.50
2019-04-20T12:48:47.452Z,39.50
2019-04-20T12:51:19.671Z,39.60
2019-04-20T12:53:52.846Z,41.50
2019-04-20T12:56:26.441Z,41.50
2019-04-20T12:58:58.269Z,42.30
2019-04-20T13:01:31.560Z,42.00
2019-04-20T13:04:07.464Z,42.00
2019-04-20T13:06:39.234Z,42.00
2019-04-20T13:09:22.871Z,41.80
2019-04-20T13:12:19.396Z,41.80
2019-04-20T13:15:42.498Z,41.70
2019-04-20T13:18:16.982Z,42.40
2019-04-20T13:20:50.122Z,41.10
2019-04-20T13:23:24.777Z,41.30
2019-04-20T13:25:57.329Z,40.90
2019-04-20T13:28:30.744Z,41.10
2019-04-20T13:31:04.001Z,41.10
2019-04-20T13:33:36.969Z,41.00
2019-04-20T13:36:10.374Z,40.90
2019-04-20T13:38:44.102Z,41.30
2019-04-20T13:41:17.857Z,41.10
2019-04-20T13:43:50.253Z,40.30
2019-04-20T13:46:22.980Z,39.30
2019-04-20T13:48:57.193Z,39.50
2019-04-20T13:51:30.831Z,40.60
2019-04-20T13:54:27.646Z,41.20
2019-04-20T13:56:59.645Z,41.20
2019-04-20T13:59:44.117Z,41.40
2019-04-20T14:02:38.571Z,41.70
2019-04-20T14:05:10.873Z,42.00
2019-04-20T14:07:42.737Z,42.00
2019-04-20T14:10:15.449Z,41.00
2019-04-20T14:13:35.268Z,41.70
2019-04-20T14:16:03.066Z,41.20
2019-04-20T14:21:36.278Z,42.50
2019-04-20T14:24:08.988Z,43.10
2019-04-20T14:26:43.754Z,42.30
2019-04-20T14:29:16.907Z,40.70
2019-04-20T14:31:50.024Z,40.30
2019-04-20T14:35:59.100Z,40.70
2019-04-20T14:38:30.782Z,39.40
2019-04-20T14:41:02.227Z,39.40
2019-04-20T14:43:35.236Z,39.50
2019-04-20T14:46:08.520Z,40.00
2019-04-20T14:48:40.662Z,39.60
2019-04-20T14:51:12.408Z,39.60
2019-04-20T14:53:45.364Z,39.90
2019-04-20T14:56:17.729Z,39.70
2019-04-20T14:59:20.730Z,39.30
2019-04-20T15:02:02.793Z,40.00
2019-04-20T15:04:35.317Z,39.30
2019-04-20T15:07:08.659Z,39.60
2019-04-20T15:09:40.695Z,40.10
2019-04-20T15:12:12.958Z,38.70
2019-04-20T15:14:44.977Z,39.70
2019-04-20T15:17:23.566Z,38.60
2019-04-20T15:20:05.553Z,40.40
2019-04-20T15:22:39.655Z,38.90
2019-04-20T15:25:11.693Z,40.00
2019-04-20T15:27:46.045Z,39.50
2019-04-20T15:30:18.319Z,39.90
2019-04-20T15:32:52.179Z,40.30
2019-04-20T15:35:24.785Z,39.50
2019-04-20T15:37:57.372Z,39.60
2019-04-20T15:40:29.505Z,39.60
2019-04-20T15:43:10.260Z,40.40
2019-04-20T15:45:34.917Z,39.40
2019-04-20T15:48:07.850Z,41.70
2019-04-20T15:50:40.042Z,40.80
2019-04-20T15:53:13.505Z,40.90
2019-04-20T15:55:47.390Z,41.10
2019-04-20T15:58:20.535Z,41.00
2019-04-20T16:00:52.830Z,40.80
2019-04-20T16:03:37.222Z,41.90
2019-04-20T16:06:11.489Z,42.30
2019-04-20T16:08:46.351Z,42.00
2019-04-20T16:11:19.334Z,41.80
2019-04-20T16:13:53.885Z,42.00
2019-04-20T16:16:25.652Z,41.70
2019-04-20T16:18:58.754Z,41.50
2019-04-20T16:21:33.880Z,42.30
2019-04-20T16:26:57.694Z,41.70
2019-04-20T16:29:31.409Z,42.00
2019-04-20T16:32:04.722Z,40.80
2019-04-20T16:34:38.291Z,41.00
2019-04-20T16:37:12.534Z,41.30
2019-04-20T16:39:43.798Z,41.40
2019-04-20T16:42:16.451Z,42.10
2019-04-20T16:44:49.391Z,41.80
2019-04-20T16:47:22.048Z,41.20
2019-04-20T16:49:55.125Z,40.60
2019-04-20T16:52:28.826Z,42.20
2019-04-20T16:55:02.142Z,42.20
2019-04-20T16:57:34.820Z,41.60
2019-04-20T17:00:07.546Z,42.00
2019-04-20T17:02:40.326Z,41.30
2019-04-20T17:05:13.530Z,41.90
2019-04-20T17:07:47.019Z,41.80
2019-04-20T17:10:20.430Z,41.80
2019-04-20T17:12:53.662Z,41.00
2019-04-20T17:15:29.650Z,42.30
2019-04-20T17:18:03.511Z,42.50
2019-04-20T17:20:36.817Z,42.40
2019-04-20T17:23:10.736Z,42.20
2019-04-20T17:25:43.872Z,42.60
2019-04-20T17:28:38.603Z,42.70
2019-04-20T17:31:39.926Z,42.80
2019-04-20T17:34:29.991Z,42.80
2019-04-20T17:36:50.594Z,42.90
2019-04-20T17:39:31.057Z,42.90
2019-04-20T17:42:14.694Z,43.00
2019-04-20T17:44:44.971Z,43.10
2019-04-20T17:47:29.103Z,43.10
2019-04-20T17:50:00.688Z,43.40
2019-04-20T17:52:49.650Z,43.10
2019-04-20T17:55:19.700Z,43.10
2019-04-20T17:57:44.247Z,42.70
2019-04-20T18:00:51.227Z,43.20
2019-04-20T18:04:00.463Z,43.10
2019-04-20T18:06:19.973Z,43.20
2019-04-20T18:08:48.379Z,43.20
2019-04-20T18:11:14.977Z,43.30
2019-04-20T18:13:45.005Z,43.30
2019-04-20T18:16:41.877Z,42.80
2019-04-20T18:19:10.016Z,42.90
2019-04-20T18:21:51.673Z,43.30
2019-04-20T18:24:50.739Z,43.30
2019-04-20T18:27:24.837Z,43.40
2019-04-20T18:29:53.388Z,42.90
2019-04-20T18:32:19.793Z,43.40
2019-04-20T18:35:02.627Z,43.40
2019-04-20T18:37:32.729Z,43.40
2019-04-20T18:40:11.111Z,43.10
2019-04-20T18:42:43.773Z,43.40
2019-04-20T18:45:30.852Z,43.20
2019-04-20T18:48:14.631Z,43.50
2019-04-20T18:50:32.148Z,43.50
2019-04-20T18:52:59.960Z,43.50
2019-04-20T18:55:41.640Z,44.10
2019-04-20T18:58:07.482Z,43.50
2019-04-20T19:00:45.930Z,43.60
2019-04-20T19:03:25.221Z,43.60
2019-04-20T19:05:49.634Z,43.70
2019-04-20T19:08:30.314Z,43.70
2019-04-20T19:13:51.144Z,43.70
2019-04-20T19:16:50.581Z,43.70
2019-04-20T19:19:25.763Z,43.70
2019-04-20T19:21:52.120Z,43.80
2019-04-20T19:24:29.106Z,43.80
2019-04-20T19:32:24.091Z,43.00
2019-04-20T19:34:57.040Z,43.70
2019-04-20T19:37:27.440Z,43.80
2019-04-20T19:40:07.762Z,43.50
2019-04-20T19:42:43.796Z,43.90
2019-04-20T19:45:30.168Z,43.90
2019-04-20T19:47:54.731Z,44.00
2019-04-20T19:53:16.423Z,44.60
2019-04-20T19:55:39.673Z,44.00
2019-04-20T19:58:11.155Z,44.10
2019-04-20T20:00:53.224Z,44.10
2019-04-20T20:03:27.898Z,44.10
2019-04-20T20:06:01.546Z,44.20
2019-04-20T20:08:36.378Z,44.10
2019-04-20T20:11:16.884Z,44.10
2019-04-20T20:13:49.583Z,44.20
2019-04-20T20:16:27.186Z,44.30
2019-04-20T20:19:07.437Z,44.30
2019-04-20T20:21:45.754Z,43.90
2019-04-20T20:24:14.403Z,44.30
2019-04-20T20:26:54.572Z,44.30
2019-04-20T20:29:33.201Z,44.20
2019-04-20T20:32:11.687Z,44.40
2019-04-20T20:34:40.493Z,44.40
2019-04-20T20:37:14.271Z,44.20
2019-04-20T20:39:53.853Z,44.20
2019-04-20T20:42:30.650Z,44.30
2019-04-20T20:45:09.307Z,44.20
2019-04-20T20:47:49.022Z,44.20
2019-04-20T20:50:28.452Z,44.20
2019-04-20T20:52:55.522Z,44.30
2019-04-20T20:55:28.828Z,44.30
2019-04-20T20:58:00.678Z,43.80
2019-04-20T21:00:34.514Z,44.20
2019-04-20T21:03:02.723Z,44.20
2019-04-20T21:05:31.906Z,44.30
2019-04-20T21:08:05.800Z,44.00
2019-04-20T21:10:42.389Z,44.40
2019-04-20T21:13:14.268Z,44.50
2019-04-20T21:15:57.563Z,44.50
2019-04-20T21:18:43.554Z,44.50
2019-04-20T21:21:11.713Z,44.50
2019-04-20T21:23:42.840Z,44.30
2019-04-20T21:26:32.040Z,44.50
2019-04-20T21:29:20.448Z,44.20
2019-04-20T21:31:57.480Z,44.70
2019-04-20T21:34:27.344Z,44.60
2019-04-20T21:37:10.701Z,44.60
2019-04-20T21:39:53.896Z,44.80
2019-04-20T21:42:24.800Z,44.60
2019-04-20T21:45:04.592Z,44.70
2019-04-20T21:47:34.153Z,44.40
2019-04-20T21:50:34.192Z,44.40
2019-04-20T21:52:53.526Z,44.30
2019-04-20T21:55:25.970Z,44.20
2019-04-20T21:58:05.273Z,44.60
2019-04-20T22:00:44.585Z,44.60
2019-04-20T22:03:15.469Z,44.50
2019-04-20T22:05:48.606Z,44.60
2019-04-20T22:08:22.194Z,44.70
2019-04-20T22:10:55.507Z,44.20
2019-04-20T22:13:34.453Z,44.60
2019-04-20T22:16:08.248Z,44.50
2019-04-20T22:18:48.170Z,44.70
2019-04-20T22:21:21.235Z,44.70
2019-04-20T22:24:00.542Z,45.00
2019-04-20T22:26:34.383Z,44.50
2019-04-20T22:29:02.838Z,44.70
2019-04-20T22:31:36.046Z,44.70
2019-04-20T22:34:16.323Z,45.00
2019-04-20T22:36:48.090Z,45.00
2019-04-20T22:39:23.575Z,45.00
2019-04-20T22:47:05.480Z,44.10
2019-04-20T22:49:51.501Z,44.80
2019-04-20T22:52:29.380Z,44.90
2019-04-20T22:55:01.471Z,44.50
2019-04-20T22:57:36.388Z,44.60
2019-04-20T23:00:03.414Z,44.50
2019-04-20T23:02:30.237Z,44.80
2019-04-20T23:05:04.792Z,45.00
2019-04-20T23:07:38.823Z,44.60
2019-04-20T23:10:11.350Z,45.10
2019-04-20T23:12:52.484Z,45.00
2019-04-20T23:15:22.499Z,45.00
2019-04-20T23:17:55.918Z,45.10
2019-04-20T23:20:32.664Z,44.60
2019-04-20T23:23:03.061Z,44.90
2019-04-20T23:25:36.461Z,44.60
2019-04-20T23:33:16.091Z,44.30
2019-04-20T23:35:54.648Z,45.00
2019-04-20T23:38:24.697Z,45.00
2019-04-20T23:40:57.694Z,45.10
2019-04-20T23:43:43.130Z,44.80
2019-04-20T23:46:33.302Z,45.20
2019-04-20T23:49:28.053Z,45.10
2019-04-20T23:52:26.978Z,45.10
2019-04-20T23:54:34.011Z,45.10
2019-04-20T23:57:05.980Z,45.10
2019-04-20T23:59:41.850Z,44.80
